sensor_id;sensor_type;location;lat;lon;timestamp;P1;durP1;ratioP1;P2;durP2;ratioP2
65150;SDS011;51918;51.856;0.150;2022-09-02T00:03:06;5.93;;;1.90;;
65150;SDS011;51918;51.856;0.150;2022-09-02T00:08:07;2.67;;;1.30;;
65150;SDS011;51918;51.856;0.150;2022-09-02T00:13:10;6.80;;;1.40;;
65150;SDS011;51918;51.856;0.150;2022-09-02T00:18:12;5.88;;;1.48;;
65150;SDS011;51918;51.856;0.150;2022-09-02T00:23:14;4.25;;;1.48;;
65150;SDS011;51918;51.856;0.150;2022-09-02T00:28:17;4.38;;;1.45;;
65150;SDS011;51918;51.856;0.150;2022-09-02T00:33:18;7.22;;;1.95;;
65150;SDS011;51918;51.856;0.150;2022-09-02T00:38:18;4.38;;;1.30;;
65150;SDS011;51918;51.856;0.150;2022-09-02T00:48:36;5.15;;;1.80;;
65150;SDS011;51918;51.856;0.150;2022-09-02T00:53:41;8.38;;;1.83;;
65150;SDS011;51918;51.856;0.150;2022-09-02T00:58:45;5.80;;;1.48;;
65150;SDS011;51918;51.856;0.150;2022-09-02T01:03:47;6.13;;;1.70;;
65150;SDS011;51918;51.856;0.150;2022-09-02T01:08:50;5.00;;;1.75;;
65150;SDS011;51918;51.856;0.150;2022-09-02T01:13:56;3.65;;;1.52;;
65150;SDS011;51918;51.856;0.150;2022-09-02T01:18:57;4.75;;;1.55;;
65150;SDS011;51918;51.856;0.150;2022-09-02T01:24:02;4.10;;;1.42;;
65150;SDS011;51918;51.856;0.150;2022-09-02T01:29:03;5.22;;;1.77;;
65150;SDS011;51918;51.856;0.150;2022-09-02T01:34:04;7.25;;;2.03;;
65150;SDS011;51918;51.856;0.150;2022-09-02T01:39:07;5.25;;;1.60;;
65150;SDS011;51918;51.856;0.150;2022-09-02T01:44:09;6.88;;;1.52;;
65150;SDS011;51918;51.856;0.150;2022-09-02T01:49:09;7.20;;;1.60;;
65150;SDS011;51918;51.856;0.150;2022-09-02T01:59:12;4.85;;;1.63;;
65150;SDS011;51918;51.856;0.150;2022-09-02T02:04:12;7.97;;;2.03;;
65150;SDS011;51918;51.856;0.150;2022-09-02T02:09:15;6.57;;;1.50;;
65150;SDS011;51918;51.856;0.150;2022-09-02T02:14:17;7.07;;;2.00;;
65150;SDS011;51918;51.856;0.150;2022-09-02T02:24:19;7.97;;;1.37;;
65150;SDS011;51918;51.856;0.150;2022-09-02T02:29:20;5.22;;;1.70;;
65150;SDS011;51918;51.856;0.150;2022-09-02T02:39:22;6.63;;;1.90;;
65150;SDS011;51918;51.856;0.150;2022-09-02T02:44:23;6.45;;;1.65;;
65150;SDS011;51918;51.856;0.150;2022-09-02T02:54:25;4.80;;;1.80;;
65150;SDS011;51918;51.856;0.150;2022-09-02T02:59:26;4.55;;;1.67;;
65150;SDS011;51918;51.856;0.150;2022-09-02T03:09:28;7.57;;;1.70;;
65150;SDS011;51918;51.856;0.150;2022-09-02T03:14:29;8.48;;;2.17;;
65150;SDS011;51918;51.856;0.150;2022-09-02T03:19:29;4.05;;;1.80;;
65150;SDS011;51918;51.856;0.150;2022-09-02T03:24:31;8.23;;;1.65;;
65150;SDS011;51918;51.856;0.150;2022-09-02T03:29:32;3.85;;;1.42;;
65150;SDS011;51918;51.856;0.150;2022-09-02T03:39:35;4.23;;;1.33;;
65150;SDS011;51918;51.856;0.150;2022-09-02T03:44:36;6.38;;;1.60;;
65150;SDS011;51918;51.856;0.150;2022-09-02T03:49:36;3.60;;;1.65;;
65150;SDS011;51918;51.856;0.150;2022-09-02T03:54:38;9.65;;;1.83;;
65150;SDS011;51918;51.856;0.150;2022-09-02T03:59:39;6.88;;;1.60;;
65150;SDS011;51918;51.856;0.150;2022-09-02T04:04:40;8.00;;;2.15;;
65150;SDS011;51918;51.856;0.150;2022-09-02T04:09:42;4.68;;;1.70;;
65150;SDS011;51918;51.856;0.150;2022-09-02T04:14:42;8.05;;;1.83;;
65150;SDS011;51918;51.856;0.150;2022-09-02T04:19:43;8.02;;;1.48;;
65150;SDS011;51918;51.856;0.150;2022-09-02T04:24:45;6.03;;;1.88;;
65150;SDS011;51918;51.856;0.150;2022-09-02T04:29:46;7.43;;;2.13;;
65150;SDS011;51918;51.856;0.150;2022-09-02T04:39:48;9.55;;;2.20;;
65150;SDS011;51918;51.856;0.150;2022-09-02T04:44:49;5.70;;;2.00;;
65150;SDS011;51918;51.856;0.150;2022-09-02T04:49:50;6.35;;;2.00;;
65150;SDS011;51918;51.856;0.150;2022-09-02T04:59:52;5.05;;;2.00;;
65150;SDS011;51918;51.856;0.150;2022-09-02T05:09:56;6.37;;;1.70;;
65150;SDS011;51918;51.856;0.150;2022-09-02T05:14:57;8.68;;;1.80;;
65150;SDS011;51918;51.856;0.150;2022-09-02T05:25:00;5.53;;;2.20;;
65150;SDS011;51918;51.856;0.150;2022-09-02T05:30:00;6.60;;;1.70;;
65150;SDS011;51918;51.856;0.150;2022-09-02T05:35:01;7.25;;;1.60;;
65150;SDS011;51918;51.856;0.150;2022-09-02T05:40:04;7.63;;;1.95;;
65150;SDS011;51918;51.856;0.150;2022-09-02T05:45:06;5.70;;;2.05;;
65150;SDS011;51918;51.856;0.150;2022-09-02T05:50:07;4.95;;;1.70;;
65150;SDS011;51918;51.856;0.150;2022-09-02T05:55:10;5.50;;;2.17;;
65150;SDS011;51918;51.856;0.150;2022-09-02T06:00:11;5.72;;;1.70;;
65150;SDS011;51918;51.856;0.150;2022-09-02T06:05:12;8.57;;;1.92;;
65150;SDS011;51918;51.856;0.150;2022-09-02T06:15:15;6.35;;;2.08;;
65150;SDS011;51918;51.856;0.150;2022-09-02T06:20:15;8.32;;;2.13;;
65150;SDS011;51918;51.856;0.150;2022-09-02T06:30:18;9.52;;;2.17;;
65150;SDS011;51918;51.856;0.150;2022-09-02T06:40:20;7.43;;;2.00;;
65150;SDS011;51918;51.856;0.150;2022-09-02T06:45:21;7.65;;;1.85;;
65150;SDS011;51918;51.856;0.150;2022-09-02T06:50:22;5.47;;;2.00;;
65150;SDS011;51918;51.856;0.150;2022-09-02T06:55:24;6.05;;;1.83;;
65150;SDS011;51918;51.856;0.150;2022-09-02T07:00:24;8.25;;;2.15;;
65150;SDS011;51918;51.856;0.150;2022-09-02T07:05:25;5.47;;;1.80;;
65150;SDS011;51918;51.856;0.150;2022-09-02T07:10:27;7.85;;;2.13;;
65150;SDS011;51918;51.856;0.150;2022-09-02T07:15:28;11.13;;;1.90;;
65150;SDS011;51918;51.856;0.150;2022-09-02T07:20:28;5.78;;;2.05;;
65150;SDS011;51918;51.856;0.150;2022-09-02T07:25:30;6.50;;;2.17;;
65150;SDS011;51918;51.856;0.150;2022-09-02T07:30:31;5.60;;;1.85;;
65150;SDS011;51918;51.856;0.150;2022-09-02T07:35:32;4.78;;;2.10;;
65150;SDS011;51918;51.856;0.150;2022-09-02T07:40:34;5.80;;;1.83;;
65150;SDS011;51918;51.856;0.150;2022-09-02T07:45:36;7.65;;;2.20;;
65150;SDS011;51918;51.856;0.150;2022-09-02T07:50:37;5.75;;;2.25;;
65150;SDS011;51918;51.856;0.150;2022-09-02T07:55:39;5.43;;;1.75;;
65150;SDS011;51918;51.856;0.150;2022-09-02T08:00:40;4.88;;;1.98;;
65150;SDS011;51918;51.856;0.150;2022-09-02T08:05:41;4.68;;;1.52;;
65150;SDS011;51918;51.856;0.150;2022-09-02T08:10:45;8.70;;;2.00;;
65150;SDS011;51918;51.856;0.150;2022-09-02T08:15:46;7.25;;;1.60;;
65150;SDS011;51918;51.856;0.150;2022-09-02T08:20:47;5.65;;;1.83;;
65150;SDS011;51918;51.856;0.150;2022-09-02T08:25:49;4.50;;;1.98;;
65150;SDS011;51918;51.856;0.150;2022-09-02T08:30:49;7.70;;;2.28;;
65150;SDS011;51918;51.856;0.150;2022-09-02T08:35:50;5.50;;;1.70;;
65150;SDS011;51918;51.856;0.150;2022-09-02T08:40:52;5.57;;;1.60;;
65150;SDS011;51918;51.856;0.150;2022-09-02T08:45:53;5.28;;;1.58;;
65150;SDS011;51918;51.856;0.150;2022-09-02T08:51:00;5.18;;;1.73;;
65150;SDS011;51918;51.856;0.150;2022-09-02T08:56:07;4.65;;;1.33;;
65150;SDS011;51918;51.856;0.150;2022-09-02T09:01:12;6.55;;;1.63;;
65150;SDS011;51918;51.856;0.150;2022-09-02T09:06:21;4.90;;;1.70;;
65150;SDS011;51918;51.856;0.150;2022-09-02T09:11:33;3.97;;;1.33;;
65150;SDS011;51918;51.856;0.150;2022-09-02T09:16:39;6.68;;;1.50;;
65150;SDS011;51918;51.856;0.150;2022-09-02T09:21:45;5.47;;;1.20;;
65150;SDS011;51918;51.856;0.150;2022-09-02T09:26:47;4.97;;;1.25;;
65150;SDS011;51918;51.856;0.150;2022-09-02T09:31:50;7.18;;;1.50;;
65150;SDS011;51918;51.856;0.150;2022-09-02T09:36:54;5.57;;;1.10;;
65150;SDS011;51918;51.856;0.150;2022-09-02T09:41:57;2.45;;;1.10;;
65150;SDS011;51918;51.856;0.150;2022-09-02T09:46:59;6.28;;;1.45;;
65150;SDS011;51918;51.856;0.150;2022-09-02T09:52:00;4.55;;;1.40;;
65150;SDS011;51918;51.856;0.150;2022-09-02T09:57:16;4.90;;;1.20;;
65150;SDS011;51918;51.856;0.150;2022-09-02T10:02:20;4.65;;;1.30;;
65150;SDS011;51918;51.856;0.150;2022-09-02T10:07:35;3.80;;;1.50;;
65150;SDS011;51918;51.856;0.150;2022-09-02T10:12:38;5.75;;;1.80;;
65150;SDS011;51918;51.856;0.150;2022-09-02T10:17:42;2.53;;;1.15;;
65150;SDS011;51918;51.856;0.150;2022-09-02T10:22:54;3.03;;;1.20;;
65150;SDS011;51918;51.856;0.150;2022-09-02T10:28:10;3.40;;;1.35;;
65150;SDS011;51918;51.856;0.150;2022-09-02T10:33:21;3.08;;;1.15;;
65150;SDS011;51918;51.856;0.150;2022-09-02T10:38:36;5.40;;;1.20;;
65150;SDS011;51918;51.856;0.150;2022-09-02T10:43:48;6.78;;;1.40;;
65150;SDS011;51918;51.856;0.150;2022-09-02T10:49:04;3.97;;;1.10;;
65150;SDS011;51918;51.856;0.150;2022-09-02T10:54:17;2.33;;;1.10;;
65150;SDS011;51918;51.856;0.150;2022-09-02T10:59:31;2.63;;;1.00;;
65150;SDS011;51918;51.856;0.150;2022-09-02T11:04:36;3.72;;;1.20;;
65150;SDS011;51918;51.856;0.150;2022-09-02T11:09:42;2.97;;;1.20;;
65150;SDS011;51918;51.856;0.150;2022-09-02T11:14:52;6.82;;;1.27;;
65150;SDS011;51918;51.856;0.150;2022-09-02T11:20:02;3.97;;;1.40;;
65150;SDS011;51918;51.856;0.150;2022-09-02T11:25:10;5.28;;;2.03;;
65150;SDS011;51918;51.856;0.150;2022-09-02T11:30:17;3.20;;;1.35;;
65150;SDS011;51918;51.856;0.150;2022-09-02T11:35:19;2.78;;;1.80;;
65150;SDS011;51918;51.856;0.150;2022-09-02T11:40:23;4.53;;;1.60;;
65150;SDS011;51918;51.856;0.150;2022-09-02T11:45:41;6.07;;;1.80;;
65150;SDS011;51918;51.856;0.150;2022-09-02T11:51:03;2.95;;;1.60;;
65150;SDS011;51918;51.856;0.150;2022-09-02T11:56:27;3.78;;;1.60;;
65150;SDS011;51918;51.856;0.150;2022-09-02T12:01:36;3.60;;;1.75;;
65150;SDS011;51918;51.856;0.150;2022-09-02T12:06:40;3.20;;;1.70;;
65150;SDS011;51918;51.856;0.150;2022-09-02T12:29:30;5.90;;;2.20;;
65150;SDS011;51918;51.856;0.150;2022-09-02T12:34:50;3.75;;;1.77;;
65150;SDS011;51918;51.856;0.150;2022-09-02T12:39:53;3.72;;;2.28;;
65150;SDS011;51918;51.856;0.150;2022-09-02T12:45:10;5.22;;;2.50;;
65150;SDS011;51918;51.856;0.150;2022-09-02T12:50:17;3.38;;;2.40;;
65150;SDS011;51918;51.856;0.150;2022-09-02T12:55:25;5.97;;;2.60;;
65150;SDS011;51918;51.856;0.150;2022-09-02T13:00:31;7.35;;;2.45;;
65150;SDS011;51918;51.856;0.150;2022-09-02T13:05:40;4.88;;;2.30;;
65150;SDS011;51918;51.856;0.150;2022-09-02T13:10:55;2.80;;;2.08;;
65150;SDS011;51918;51.856;0.150;2022-09-02T13:16:26;3.88;;;1.80;;
65150;SDS011;51918;51.856;0.150;2022-09-02T13:27:44;4.63;;;2.15;;
65150;SDS011;51918;51.856;0.150;2022-09-02T13:33:11;5.00;;;2.25;;
65150;SDS011;51918;51.856;0.150;2022-09-02T13:38:13;3.30;;;2.03;;
65150;SDS011;51918;51.856;0.150;2022-09-02T13:43:17;3.45;;;2.17;;
65150;SDS011;51918;51.856;0.150;2022-09-02T13:48:21;3.72;;;2.38;;
65150;SDS011;51918;51.856;0.150;2022-09-02T13:53:24;7.13;;;2.50;;
65150;SDS011;51918;51.856;0.150;2022-09-02T13:58:32;4.32;;;2.20;;
65150;SDS011;51918;51.856;0.150;2022-09-02T14:03:35;3.85;;;2.28;;
65150;SDS011;51918;51.856;0.150;2022-09-02T14:08:37;3.83;;;2.35;;
65150;SDS011;51918;51.856;0.150;2022-09-02T14:13:39;3.85;;;2.30;;
65150;SDS011;51918;51.856;0.150;2022-09-02T14:24:23;3.33;;;2.53;;
65150;SDS011;51918;51.856;0.150;2022-09-02T14:29:25;4.00;;;2.70;;
65150;SDS011;51918;51.856;0.150;2022-09-02T14:34:34;6.43;;;2.90;;
65150;SDS011;51918;51.856;0.150;2022-09-02T14:39:36;4.90;;;2.92;;
65150;SDS011;51918;51.856;0.150;2022-09-02T14:44:50;5.00;;;2.50;;
65150;SDS011;51918;51.856;0.150;2022-09-02T14:49:52;4.70;;;2.80;;
65150;SDS011;51918;51.856;0.150;2022-09-02T14:54:54;4.53;;;2.97;;
65150;SDS011;51918;51.856;0.150;2022-09-02T14:59:56;6.30;;;3.10;;
65150;SDS011;51918;51.856;0.150;2022-09-02T15:05:00;5.00;;;3.22;;
65150;SDS011;51918;51.856;0.150;2022-09-02T15:10:03;5.72;;;3.40;;
65150;SDS011;51918;51.856;0.150;2022-09-02T15:15:05;6.90;;;3.58;;
65150;SDS011;51918;51.856;0.150;2022-09-02T15:20:08;7.30;;;3.53;;
65150;SDS011;51918;51.856;0.150;2022-09-02T15:25:09;7.10;;;3.38;;
65150;SDS011;51918;51.856;0.150;2022-09-02T15:30:10;5.05;;;2.97;;
65150;SDS011;51918;51.856;0.150;2022-09-02T15:35:13;4.38;;;3.20;;
65150;SDS011;51918;51.856;0.150;2022-09-02T15:40:13;6.13;;;3.15;;
65150;SDS011;51918;51.856;0.150;2022-09-02T15:45:14;5.95;;;3.40;;
65150;SDS011;51918;51.856;0.150;2022-09-02T15:50:16;6.72;;;3.20;;
65150;SDS011;51918;51.856;0.150;2022-09-02T15:55:17;4.47;;;2.90;;
65150;SDS011;51918;51.856;0.150;2022-09-02T16:00:17;6.13;;;3.10;;
65150;SDS011;51918;51.856;0.150;2022-09-02T16:05:20;5.10;;;3.00;;
65150;SDS011;51918;51.856;0.150;2022-09-02T16:10:21;4.63;;;3.25;;
65150;SDS011;51918;51.856;0.150;2022-09-02T16:15:21;5.03;;;3.17;;
65150;SDS011;51918;51.856;0.150;2022-09-02T16:20:23;6.45;;;3.50;;
65150;SDS011;51918;51.856;0.150;2022-09-02T16:25:24;6.28;;;4.10;;
65150;SDS011;51918;51.856;0.150;2022-09-02T16:30:25;4.22;;;3.10;;
65150;SDS011;51918;51.856;0.150;2022-09-02T16:35:27;6.53;;;3.20;;
65150;SDS011;51918;51.856;0.150;2022-09-02T16:40:27;4.40;;;2.67;;
65150;SDS011;51918;51.856;0.150;2022-09-02T16:45:28;5.68;;;3.20;;
65150;SDS011;51918;51.856;0.150;2022-09-02T16:50:30;5.40;;;3.20;;
65150;SDS011;51918;51.856;0.150;2022-09-02T16:55:31;6.50;;;2.80;;
65150;SDS011;51918;51.856;0.150;2022-09-02T17:00:31;6.65;;;3.45;;
65150;SDS011;51918;51.856;0.150;2022-09-02T17:05:33;4.05;;;3.13;;
65150;SDS011;51918;51.856;0.150;2022-09-02T17:10:34;4.70;;;3.25;;
65150;SDS011;51918;51.856;0.150;2022-09-02T17:15:35;6.03;;;2.88;;
65150;SDS011;51918;51.856;0.150;2022-09-02T17:20:37;3.75;;;3.00;;
65150;SDS011;51918;51.856;0.150;2022-09-02T17:25:37;8.93;;;3.22;;
65150;SDS011;51918;51.856;0.150;2022-09-02T17:30:38;5.20;;;3.08;;
65150;SDS011;51918;51.856;0.150;2022-09-02T17:35:40;5.43;;;2.90;;
65150;SDS011;51918;51.856;0.150;2022-09-02T17:40:40;5.38;;;3.22;;
65150;SDS011;51918;51.856;0.150;2022-09-02T17:45:41;6.05;;;3.40;;
65150;SDS011;51918;51.856;0.150;2022-09-02T17:50:43;6.05;;;3.10;;
65150;SDS011;51918;51.856;0.150;2022-09-02T17:55:44;5.65;;;3.20;;
65150;SDS011;51918;51.856;0.150;2022-09-02T18:00:45;7.03;;;4.20;;
65150;SDS011;51918;51.856;0.150;2022-09-02T18:05:55;5.65;;;3.72;;
65150;SDS011;51918;51.856;0.150;2022-09-02T18:11:08;5.95;;;3.78;;
65150;SDS011;51918;51.856;0.150;2022-09-02T18:16:14;4.93;;;3.78;;
65150;SDS011;51918;51.856;0.150;2022-09-02T18:21:24;5.57;;;3.92;;
65150;SDS011;51918;51.856;0.150;2022-09-02T18:26:32;6.40;;;3.97;;
65150;SDS011;51918;51.856;0.150;2022-09-02T18:31:48;6.65;;;3.90;;
65150;SDS011;51918;51.856;0.150;2022-09-02T18:37:03;5.55;;;3.38;;
65150;SDS011;51918;51.856;0.150;2022-09-02T18:42:14;6.28;;;4.35;;
65150;SDS011;51918;51.856;0.150;2022-09-02T18:47:22;6.82;;;4.10;;
65150;SDS011;51918;51.856;0.150;2022-09-02T18:52:26;6.68;;;4.10;;
65150;SDS011;51918;51.856;0.150;2022-09-02T18:57:27;5.85;;;4.72;;
65150;SDS011;51918;51.856;0.150;2022-09-02T19:02:37;6.68;;;4.40;;
65150;SDS011;51918;51.856;0.150;2022-09-02T19:07:45;6.90;;;4.85;;
65150;SDS011;51918;51.856;0.150;2022-09-02T19:12:46;7.88;;;5.05;;
65150;SDS011;51918;51.856;0.150;2022-09-02T19:17:46;7.82;;;5.10;;
65150;SDS011;51918;51.856;0.150;2022-09-02T19:22:49;8.35;;;5.55;;
65150;SDS011;51918;51.856;0.150;2022-09-02T19:27:52;11.65;;;6.10;;
65150;SDS011;51918;51.856;0.150;2022-09-02T19:32:57;9.18;;;6.38;;
65150;SDS011;51918;51.856;0.150;2022-09-02T19:38:01;11.82;;;7.20;;
65150;SDS011;51918;51.856;0.150;2022-09-02T19:43:03;12.90;;;7.75;;
65150;SDS011;51918;51.856;0.150;2022-09-02T19:48:05;12.68;;;8.20;;
65150;SDS011;51918;51.856;0.150;2022-09-02T19:53:08;13.23;;;8.80;;
65150;SDS011;51918;51.856;0.150;2022-09-02T19:58:11;15.32;;;9.85;;
65150;SDS011;51918;51.856;0.150;2022-09-02T20:03:11;15.60;;;9.85;;
65150;SDS011;51918;51.856;0.150;2022-09-02T20:08:14;15.20;;;10.77;;
65150;SDS011;51918;51.856;0.150;2022-09-02T20:13:14;16.45;;;10.20;;
65150;SDS011;51918;51.856;0.150;2022-09-02T20:18:16;16.77;;;11.57;;
65150;SDS011;51918;51.856;0.150;2022-09-02T20:23:19;18.10;;;12.77;;
65150;SDS011;51918;51.856;0.150;2022-09-02T20:28:22;26.95;;;13.85;;
65150;SDS011;51918;51.856;0.150;2022-09-02T20:33:24;20.55;;;13.40;;
65150;SDS011;51918;51.856;0.150;2022-09-02T20:38:41;26.92;;;16.85;;
65150;SDS011;51918;51.856;0.150;2022-09-02T20:43:57;26.08;;;15.80;;
65150;SDS011;51918;51.856;0.150;2022-09-02T20:49:21;22.05;;;14.82;;
65150;SDS011;51918;51.856;0.150;2022-09-02T20:54:38;25.73;;;15.60;;
65150;SDS011;51918;51.856;0.150;2022-09-02T20:59:48;22.13;;;14.40;;
65150;SDS011;51918;51.856;0.150;2022-09-02T21:04:59;26.02;;;15.85;;
65150;SDS011;51918;51.856;0.150;2022-09-02T21:10:05;26.05;;;16.73;;
65150;SDS011;51918;51.856;0.150;2022-09-02T21:15:21;22.15;;;14.63;;
65150;SDS011;51918;51.856;0.150;2022-09-02T21:20:39;22.55;;;15.73;;
65150;SDS011;51918;51.856;0.150;2022-09-02T21:25:45;22.30;;;14.73;;
65150;SDS011;51918;51.856;0.150;2022-09-02T21:30:50;22.60;;;15.38;;
65150;SDS011;51918;51.856;0.150;2022-09-02T21:35:57;22.10;;;14.82;;
65150;SDS011;51918;51.856;0.150;2022-09-02T21:41:10;24.55;;;14.25;;
65150;SDS011;51918;51.856;0.150;2022-09-02T21:46:25;24.38;;;16.13;;
65150;SDS011;51918;51.856;0.150;2022-09-02T21:51:32;25.50;;;15.75;;
65150;SDS011;51918;51.856;0.150;2022-09-02T21:56:43;27.48;;;17.85;;
65150;SDS011;51918;51.856;0.150;2022-09-02T22:01:55;29.77;;;19.77;;
65150;SDS011;51918;51.856;0.150;2022-09-02T22:07:01;29.45;;;18.50;;
65150;SDS011;51918;51.856;0.150;2022-09-02T22:12:11;32.25;;;18.92;;
65150;SDS011;51918;51.856;0.150;2022-09-02T22:17:15;29.02;;;18.88;;
65150;SDS011;51918;51.856;0.150;2022-09-02T22:22:25;36.50;;;21.73;;
65150;SDS011;51918;51.856;0.150;2022-09-02T22:27:32;35.00;;;20.65;;
65150;SDS011;51918;51.856;0.150;2022-09-02T22:32:37;31.80;;;20.20;;
65150;SDS011;51918;51.856;0.150;2022-09-02T22:37:45;36.80;;;20.33;;
65150;SDS011;51918;51.856;0.150;2022-09-02T22:42:51;32.13;;;19.05;;
65150;SDS011;51918;51.856;0.150;2022-09-02T22:47:57;40.20;;;22.17;;
65150;SDS011;51918;51.856;0.150;2022-09-02T22:53:01;33.72;;;20.25;;
65150;SDS011;51918;51.856;0.150;2022-09-02T22:58:06;29.63;;;19.52;;
65150;SDS011;51918;51.856;0.150;2022-09-02T23:03:15;37.72;;;21.77;;
65150;SDS011;51918;51.856;0.150;2022-09-02T23:08:20;33.33;;;19.88;;
65150;SDS011;51918;51.856;0.150;2022-09-02T23:13:29;36.95;;;21.67;;
65150;SDS011;51918;51.856;0.150;2022-09-02T23:18:45;36.45;;;21.50;;
65150;SDS011;51918;51.856;0.150;2022-09-02T23:23:56;30.65;;;20.38;;
65150;SDS011;51918;51.856;0.150;2022-09-02T23:29:08;34.55;;;20.13;;
65150;SDS011;51918;51.856;0.150;2022-09-02T23:34:17;36.53;;;21.67;;
65150;SDS011;51918;51.856;0.150;2022-09-02T23:39:27;32.85;;;20.55;;
65150;SDS011;51918;51.856;0.150;2022-09-02T23:44:41;37.15;;;22.63;;
65150;SDS011;51918;51.856;0.150;2022-09-02T23:49:43;33.78;;;21.02;;
65150;SDS011;51918;51.856;0.150;2022-09-02T23:54:58;39.60;;;21.83;;
